createdAt,value
2023-03-28T00:01:06.665Z,20.38
2023-03-28T00:03:40.304Z,20.39
2023-03-28T00:06:16.613Z,20.38
2023-03-28T00:08:45.970Z,20.38
2023-03-28T00:11:19.783Z,20.38
2023-03-28T00:14:01.197Z,20.38
2023-03-28T00:16:33.536Z,20.39
2023-03-28T00:19:02.454Z,20.37
2023-03-28T00:21:35.650Z,20.37
2023-03-28T00:24:05.525Z,20.37
2023-03-28T00:26:35.849Z,20.37
2023-03-28T00:29:05.851Z,20.36
2023-03-28T00:31:35.273Z,20.37
2023-03-28T00:34:02.500Z,20.36
2023-03-28T00:36:32.886Z,20.37
2023-03-28T00:39:01.772Z,20.37
2023-03-28T00:41:32.622Z,20.37
2023-03-28T00:44:00.297Z,20.36
2023-03-28T00:46:40.029Z,20.37
2023-03-28T00:49:24.468Z,20.36
2023-03-28T00:51:59.388Z,20.36
2023-03-28T00:54:30.831Z,20.37
2023-03-28T00:57:02.414Z,20.37
2023-03-28T00:59:33.493Z,20.37
2023-03-28T01:02:01.203Z,20.37
2023-03-28T01:04:36.786Z,20.37
2023-03-28T01:07:04.576Z,20.36
2023-03-28T01:09:34.385Z,20.37
2023-03-28T01:12:01.867Z,20.37
2023-03-28T01:14:30.558Z,20.37
2023-03-28T01:16:58.887Z,20.37
2023-03-28T01:19:47.142Z,20.37
2023-03-28T01:22:32.613Z,20.37
2023-03-28T01:25:17.941Z,20.37
2023-03-28T01:27:50.832Z,20.37
2023-03-28T01:30:34.540Z,20.37
2023-03-28T01:33:41.558Z,20.37
2023-03-28T01:36:39.500Z,20.38
2023-03-28T01:39:25.639Z,20.37
2023-03-28T01:42:14.782Z,20.37
2023-03-28T01:44:52.108Z,20.37
2023-03-28T01:47:25.665Z,20.37
2023-03-28T01:50:03.704Z,20.37
2023-03-28T01:52:44.742Z,20.37
2023-03-28T01:55:21.988Z,20.37
2023-03-28T01:58:12.624Z,20.37
2023-03-28T02:00:55.047Z,20.37
2023-03-28T02:03:32.111Z,20.38
2023-03-28T02:06:08.457Z,20.38
2023-03-28T02:08:39.377Z,20.38
2023-03-28T02:11:40.114Z,20.38
2023-03-28T02:14:36.526Z,20.37
2023-03-28T02:17:24.661Z,20.35
2023-03-28T02:20:15.210Z,20.34
2023-03-28T02:23:14.036Z,20.33
2023-03-28T02:26:04.413Z,20.32
2023-03-28T02:28:33.208Z,20.32
2023-03-28T02:31:29.684Z,20.32
2023-03-28T02:33:58.929Z,20.33
2023-03-28T02:36:32.036Z,20.33
2023-03-28T02:39:12.553Z,20.33
2023-03-28T02:41:52.045Z,20.33
2023-03-28T02:44:22.720Z,20.33
2023-03-28T02:47:14.102Z,20.33
2023-03-28T02:49:50.347Z,20.32
2023-03-28T02:52:52.582Z,20.29
2023-03-28T02:55:38.611Z,20.27
2023-03-28T02:58:41.012Z,20.25
2023-03-28T03:01:10.658Z,20.25
2023-03-28T03:03:37.945Z,20.25
2023-03-28T03:06:06.469Z,20.25
2023-03-28T03:08:34.254Z,20.25
2023-03-28T03:11:01.380Z,20.26
2023-03-28T03:13:28.336Z,20.27
2023-03-28T03:15:56.532Z,20.27
2023-03-28T03:18:24.560Z,20.27
2023-03-28T03:20:52.873Z,20.27
2023-03-28T03:23:21.046Z,20.25
2023-03-28T03:25:50.770Z,20.24
2023-03-28T03:28:32.252Z,20.24
2023-03-28T03:31:00.251Z,20.23
2023-03-28T03:33:56.513Z,20.23
2023-03-28T03:36:27.305Z,20.24
2023-03-28T03:38:54.416Z,20.24
2023-03-28T03:41:22.692Z,20.24
2023-03-28T03:43:49.727Z,20.24
2023-03-28T03:46:16.861Z,20.24
2023-03-28T03:48:49.655Z,20.24
2023-03-28T03:51:18.187Z,20.25
2023-03-28T03:53:50.944Z,20.26
2023-03-28T03:56:21.330Z,20.26
2023-03-28T03:58:53.157Z,20.26
2023-03-28T04:01:20.298Z,20.25
2023-03-28T04:03:48.452Z,20.25
2023-03-28T04:06:21.575Z,20.25
2023-03-28T04:08:48.791Z,20.23
2023-03-28T04:11:21.498Z,20.22
2023-03-28T04:13:48.455Z,20.20
2023-03-28T04:16:15.836Z,20.18
2023-03-28T04:19:04.027Z,20.16
2023-03-28T04:21:35.400Z,20.15
2023-03-28T04:24:04.447Z,20.14
2023-03-28T04:26:38.241Z,20.15
2023-03-28T04:29:10.008Z,20.16
2023-03-28T04:31:40.029Z,20.17
2023-03-28T04:34:39.466Z,20.18
2023-03-28T04:37:16.021Z,20.20
2023-03-28T04:39:49.411Z,20.20
2023-03-28T04:42:35.819Z,20.22
2023-03-28T04:45:17.674Z,20.23
2023-03-28T04:47:45.277Z,20.25
2023-03-28T04:50:16.836Z,20.24
2023-03-28T04:52:44.888Z,20.23
2023-03-28T04:55:12.154Z,20.23
2023-03-28T04:57:39.849Z,20.21
2023-03-28T05:00:13.346Z,20.19
2023-03-28T05:03:20.676Z,20.18
2023-03-28T05:05:56.535Z,20.19
2023-03-28T05:08:26.528Z,20.19
2023-03-28T05:10:55.354Z,20.20
2023-03-28T05:13:22.717Z,20.20
2023-03-28T05:16:00.215Z,20.21
2023-03-28T05:18:42.404Z,20.20
2023-03-28T05:21:09.584Z,20.19
2023-03-28T05:23:37.048Z,20.18
2023-03-28T05:26:10.409Z,20.16
2023-03-28T05:28:38.898Z,20.15
2023-03-28T05:31:07.773Z,20.14
2023-03-28T05:33:35.699Z,20.12
2023-03-28T05:36:04.828Z,20.13
2023-03-28T05:38:34.057Z,20.13
2023-03-28T05:41:06.873Z,20.14
2023-03-28T05:43:34.032Z,20.16
2023-03-28T05:46:01.685Z,20.17
2023-03-28T05:48:39.761Z,20.19
2023-03-28T05:51:07.446Z,20.20
2023-03-28T05:53:34.544Z,20.21
2023-03-28T05:56:01.507Z,20.23
2023-03-28T05:58:28.574Z,20.24
2023-03-28T06:00:56.742Z,20.25
2023-03-28T06:03:26.023Z,20.26
2023-03-28T06:05:53.009Z,20.26
2023-03-28T06:08:24.250Z,20.27
2023-03-28T06:10:51.538Z,20.27
2023-03-28T06:13:26.119Z,20.29
2023-03-28T06:15:53.968Z,20.29
2023-03-28T06:18:27.948Z,20.30
2023-03-28T06:20:55.093Z,20.31
2023-03-28T06:23:22.710Z,20.29
2023-03-28T06:25:49.834Z,20.29
2023-03-28T06:28:17.823Z,20.29
2023-03-28T06:31:20.289Z,20.29
2023-03-28T06:33:48.450Z,20.30
2023-03-28T06:36:18.322Z,20.32
2023-03-28T06:38:46.024Z,20.32
2023-03-28T06:41:13.424Z,20.33
2023-03-28T06:43:41.675Z,20.34
2023-03-28T06:46:11.530Z,20.34
2023-03-28T06:48:43.406Z,20.34
2023-03-28T06:51:30.481Z,20.35
2023-03-28T06:53:57.611Z,20.35
2023-03-28T06:56:28.465Z,20.36
2023-03-28T06:58:56.217Z,20.36
2023-03-28T07:01:26.029Z,20.38
2023-03-28T07:04:03.524Z,20.38
2023-03-28T07:06:32.131Z,20.39
2023-03-28T07:09:01.867Z,20.39
2023-03-28T07:11:38.511Z,20.39
2023-03-28T07:14:05.502Z,20.40
2023-03-28T07:16:32.478Z,20.40
2023-03-28T07:18:59.723Z,20.40
2023-03-28T07:21:31.566Z,20.40
2023-03-28T07:23:59.780Z,20.41
2023-03-28T07:26:32.494Z,20.41
2023-03-28T07:28:59.521Z,20.41
2023-03-28T07:31:27.686Z,20.41
2023-03-28T07:33:58.395Z,20.42
2023-03-28T07:36:27.472Z,20.42
2023-03-28T07:38:57.704Z,20.42
2023-03-28T07:41:24.961Z,20.42
2023-03-28T07:43:51.962Z,20.42
2023-03-28T07:46:21.157Z,20.42
2023-03-28T07:48:48.338Z,20.43
2023-03-28T07:51:16.045Z,20.43
2023-03-28T07:53:43.507Z,20.43
2023-03-28T07:56:12.284Z,20.43
2023-03-28T07:59:08.929Z,20.43
2023-03-28T08:01:35.961Z,20.44
2023-03-28T08:04:04.337Z,20.44
2023-03-28T08:06:47.551Z,20.44
2023-03-28T08:09:17.065Z,20.45
2023-03-28T08:11:48.654Z,20.45
2023-03-28T08:14:17.601Z,20.45
2023-03-28T08:16:45.845Z,20.44
2023-03-28T08:19:13.405Z,20.44
2023-03-28T08:22:16.833Z,20.44
2023-03-28T08:24:59.853Z,20.45
2023-03-28T08:27:27.214Z,20.45
2023-03-28T08:29:58.345Z,20.45
2023-03-28T08:32:27.089Z,20.45
2023-03-28T08:34:55.709Z,20.44
2023-03-28T08:37:22.716Z,20.44
2023-03-28T08:39:49.855Z,20.45
2023-03-28T08:42:17.157Z,20.45
2023-03-28T08:44:50.366Z,20.45
2023-03-28T08:47:22.215Z,20.45
2023-03-28T08:49:56.485Z,20.46
2023-03-28T08:52:24.384Z,20.46
2023-03-28T08:54:58.485Z,20.47
2023-03-28T08:57:30.048Z,20.47
2023-03-28T09:00:15.510Z,20.46
2023-03-28T09:02:43.859Z,20.46
2023-03-28T09:05:28.010Z,20.47
2023-03-28T09:08:19.829Z,20.48
2023-03-28T09:10:58.293Z,20.48
2023-03-28T09:13:43.728Z,20.48
2023-03-28T09:16:20.337Z,20.47
2023-03-28T09:19:12.771Z,20.48
2023-03-28T09:21:57.546Z,20.48
2023-03-28T09:24:43.814Z,20.48
2023-03-28T09:27:32.659Z,20.49
2023-03-28T09:30:13.634Z,20.50
2023-03-28T09:32:41.944Z,20.49
2023-03-28T09:35:21.417Z,20.50
2023-03-28T09:37:54.352Z,20.50
2023-03-28T09:40:28.834Z,20.50
2023-03-28T09:43:19.898Z,20.50
2023-03-28T09:46:27.850Z,20.50
2023-03-28T09:49:03.651Z,20.50
2023-03-28T09:51:32.940Z,20.51
2023-03-28T09:54:05.885Z,20.51
2023-03-28T09:56:40.054Z,20.51
2023-03-28T09:59:40.898Z,20.51
2023-03-28T10:02:30.694Z,20.52
2023-03-28T10:05:00.343Z,20.52
2023-03-28T10:07:44.474Z,20.52
2023-03-28T10:10:37.531Z,20.51
2023-03-28T10:13:06.314Z,20.52
2023-03-28T10:15:51.351Z,20.52
2023-03-28T10:18:25.835Z,20.53
2023-03-28T10:21:12.558Z,20.53
2023-03-28T10:23:42.507Z,20.53
2023-03-28T10:26:13.175Z,20.53
2023-03-28T10:28:43.546Z,20.53
2023-03-28T10:31:29.288Z,20.53
2023-03-28T10:34:04.734Z,20.53
2023-03-28T10:36:54.244Z,20.52
2023-03-28T10:39:32.492Z,20.54
2023-03-28T10:42:04.165Z,20.54
2023-03-28T10:45:02.022Z,20.54
2023-03-28T10:47:31.809Z,20.54
2023-03-28T10:50:03.567Z,20.54
2023-03-28T10:52:34.699Z,20.55
2023-03-28T10:55:08.187Z,20.55
2023-03-28T10:58:10.146Z,20.55
2023-03-28T11:01:01.517Z,20.54
2023-03-28T11:03:57.478Z,20.55
2023-03-28T11:06:51.485Z,20.54
2023-03-28T11:09:48.079Z,20.54
2023-03-28T11:12:59.280Z,20.55
2023-03-28T11:15:56.184Z,20.55
2023-03-28T11:19:00.910Z,20.55
2023-03-28T11:21:39.635Z,20.55
2023-03-28T11:24:22.079Z,20.56
2023-03-28T11:27:16.714Z,20.56
2023-03-28T11:30:16.686Z,20.56
2023-03-28T11:33:19.221Z,20.58
2023-03-28T11:35:51.308Z,20.59
2023-03-28T11:38:20.376Z,20.59
2023-03-28T11:41:02.742Z,20.59
2023-03-28T11:44:11.872Z,20.60
2023-03-28T11:46:45.603Z,20.62
2023-03-28T11:49:43.959Z,20.62
2023-03-28T11:52:37.994Z,20.62
2023-03-28T11:55:27.877Z,20.63
2023-03-28T11:58:16.119Z,20.63
2023-03-28T12:00:43.099Z,20.64
2023-03-28T12:03:31.229Z,20.64
2023-03-28T12:06:09.656Z,20.65
2023-03-28T12:08:47.758Z,20.65
2023-03-28T12:11:25.826Z,20.64
2023-03-28T12:14:36.241Z,20.65
2023-03-28T12:17:23.293Z,20.64
2023-03-28T12:19:51.210Z,20.65
2023-03-28T12:22:30.595Z,20.65
2023-03-28T12:25:12.680Z,20.65
2023-03-28T12:28:13.172Z,20.66
2023-03-28T12:30:49.810Z,20.66
2023-03-28T12:33:26.185Z,20.66
2023-03-28T12:36:19.290Z,20.66
2023-03-28T12:39:34.685Z,20.66
2023-03-28T12:42:09.741Z,20.66
2023-03-28T12:44:44.995Z,20.67
2023-03-28T12:47:15.788Z,20.67
2023-03-28T12:50:18.030Z,20.67
2023-03-28T12:52:47.102Z,20.67
2023-03-28T12:55:27.068Z,20.67
2023-03-28T12:58:22.772Z,20.67
2023-03-28T13:01:07.391Z,20.67
2023-03-28T13:03:46.560Z,20.68
2023-03-28T13:06:34.275Z,20.69
2023-03-28T13:09:19.784Z,20.69
2023-03-28T13:12:22.962Z,20.69
2023-03-28T13:15:01.326Z,20.68
2023-03-28T13:17:33.002Z,20.68
2023-03-28T13:20:10.584Z,20.68
2023-03-28T13:22:42.434Z,20.68
2023-03-28T13:25:25.998Z,20.69
2023-03-28T13:27:59.083Z,20.68
2023-03-28T13:30:29.370Z,20.68
2023-03-28T13:33:22.324Z,20.68
2023-03-28T13:36:10.794Z,20.68
2023-03-28T13:38:51.002Z,20.68
2023-03-28T13:41:37.498Z,20.68
2023-03-28T13:44:26.414Z,20.68
2023-03-28T13:46:54.391Z,20.67
2023-03-28T13:49:30.577Z,20.68
2023-03-28T13:52:23.505Z,20.68
2023-03-28T13:54:56.409Z,20.68
2023-03-28T13:57:28.001Z,20.68
2023-03-28T14:00:01.690Z,20.68
2023-03-28T14:02:44.185Z,20.68
2023-03-28T14:05:20.673Z,20.68
2023-03-28T14:07:48.387Z,20.68
2023-03-28T14:10:22.302Z,20.68
2023-03-28T14:12:52.879Z,20.68
2023-03-28T14:15:24.783Z,20.68
2023-03-28T14:17:51.917Z,20.68
2023-03-28T14:20:19.140Z,20.69
2023-03-28T14:22:59.856Z,20.69
2023-03-28T14:25:28.009Z,20.69
2023-03-28T14:27:57.070Z,20.68
2023-03-28T14:30:28.627Z,20.69
2023-03-28T14:33:06.095Z,20.68
2023-03-28T14:35:35.477Z,20.68
2023-03-28T14:38:05.741Z,20.68
2023-03-28T14:40:37.800Z,20.68
2023-03-28T14:43:26.288Z,20.68
2023-03-28T14:45:54.632Z,20.68
2023-03-28T14:48:25.003Z,20.68
2023-03-28T14:50:57.340Z,20.68
2023-03-28T14:53:27.787Z,20.68
2023-03-28T14:56:01.120Z,20.69
2023-03-28T14:58:29.891Z,20.69
2023-03-28T15:01:02.256Z,20.69
2023-03-28T15:03:39.285Z,20.69
2023-03-28T15:06:08.270Z,20.69
2023-03-28T15:08:38.187Z,20.68
2023-03-28T15:11:08.901Z,20.69
2023-03-28T15:13:38.085Z,20.70
2023-03-28T15:16:08.266Z,20.70
2023-03-28T15:18:47.301Z,20.70
2023-03-28T15:21:15.309Z,20.71
2023-03-28T15:23:47.664Z,20.71
2023-03-28T15:26:29.459Z,20.71
2023-03-28T15:28:58.745Z,20.71
2023-03-28T15:31:27.375Z,20.71
2023-03-28T15:33:55.417Z,20.71
2023-03-28T15:36:32.586Z,20.71
2023-03-28T15:39:02.684Z,20.71
2023-03-28T15:41:45.340Z,20.71
2023-03-28T15:44:32.160Z,20.71
2023-03-28T15:47:11.060Z,20.70
2023-03-28T15:49:38.886Z,20.70
2023-03-28T15:52:15.716Z,20.70
2023-03-28T15:54:49.484Z,20.70
2023-03-28T15:57:18.637Z,20.70
2023-03-28T15:59:55.122Z,20.70
2023-03-28T16:02:25.168Z,20.69
2023-03-28T16:05:10.389Z,20.69
2023-03-28T16:07:48.644Z,20.68
2023-03-28T16:10:21.370Z,20.68
2023-03-28T16:13:06.946Z,20.68
2023-03-28T16:15:52.496Z,20.67
2023-03-28T16:18:29.863Z,20.66
2023-03-28T16:20:57.896Z,20.66
2023-03-28T16:23:25.182Z,20.66
2023-03-28T16:25:54.149Z,20.65
2023-03-28T16:28:21.146Z,20.65
2023-03-28T16:30:48.240Z,20.65
2023-03-28T16:33:15.170Z,20.65
2023-03-28T16:35:42.281Z,20.64
2023-03-28T16:38:11.704Z,20.64
2023-03-28T16:40:40.938Z,20.65
2023-03-28T16:43:08.322Z,20.64
2023-03-28T16:45:35.735Z,20.65
2023-03-28T16:48:02.768Z,20.64
2023-03-28T16:50:29.874Z,20.64
2023-03-28T16:52:56.841Z,20.64
2023-03-28T16:55:24.074Z,20.64
2023-03-28T16:57:51.108Z,20.64
2023-03-28T17:00:21.106Z,20.63
2023-03-28T17:02:48.451Z,20.63
2023-03-28T17:05:16.910Z,20.62
2023-03-28T17:07:43.821Z,20.62
2023-03-28T17:10:12.582Z,20.61
2023-03-28T17:12:39.707Z,20.60
2023-03-28T17:15:09.065Z,20.59
2023-03-28T17:17:36.156Z,20.59
2023-03-28T17:20:03.191Z,20.59
2023-03-28T17:22:30.523Z,20.59
2023-03-28T17:24:57.688Z,20.59
2023-03-28T17:27:24.672Z,20.59
2023-03-28T17:29:51.941Z,20.59
2023-03-28T17:32:18.994Z,20.59
2023-03-28T17:34:46.429Z,20.59
2023-03-28T17:37:13.585Z,20.58
2023-03-28T17:39:41.052Z,20.58
2023-03-28T17:42:09.801Z,20.58
2023-03-28T17:44:36.792Z,20.58
2023-03-28T17:47:03.937Z,20.58
2023-03-28T17:49:31.331Z,20.58
2023-03-28T17:51:58.425Z,20.58
2023-03-28T17:54:26.335Z,20.57
2023-03-28T17:56:54.285Z,20.57
2023-03-28T17:59:21.907Z,20.57
2023-03-28T18:01:49.101Z,20.57
2023-03-28T18:04:17.679Z,20.58
2023-03-28T18:07:02.966Z,20.58
2023-03-28T18:09:43.596Z,20.57
2023-03-28T18:12:10.527Z,20.58
2023-03-28T18:14:38.511Z,20.57
2023-03-28T18:17:06.429Z,20.58
2023-03-28T18:19:33.379Z,20.58
2023-03-28T18:22:00.914Z,20.57
2023-03-28T18:24:28.304Z,20.58
2023-03-28T18:26:55.845Z,20.57
2023-03-28T18:29:24.401Z,20.57
2023-03-28T18:31:51.640Z,20.58
2023-03-28T18:34:19.402Z,20.58
2023-03-28T18:36:46.630Z,20.58
2023-03-28T18:39:13.708Z,20.58
2023-03-28T18:41:40.611Z,20.58
2023-03-28T18:44:07.852Z,20.58
2023-03-28T18:46:35.214Z,20.59
2023-03-28T18:49:02.912Z,20.58
2023-03-28T18:51:30.026Z,20.58
2023-03-28T18:53:57.375Z,20.58
2023-03-28T18:56:24.644Z,20.58
2023-03-28T18:58:51.852Z,20.57
2023-03-28T19:01:19.323Z,20.57
2023-03-28T19:03:47.437Z,20.57
2023-03-28T19:06:15.696Z,20.57
2023-03-28T19:08:44.970Z,20.57
2023-03-28T19:11:15.066Z,20.57
2023-03-28T19:13:42.653Z,20.56
2023-03-28T19:16:17.081Z,20.57
2023-03-28T19:18:45.768Z,20.56
2023-03-28T19:21:14.042Z,20.56
2023-03-28T19:23:41.426Z,20.56
2023-03-28T19:26:11.157Z,20.56
2023-03-28T19:28:39.824Z,20.56
2023-03-28T19:31:09.334Z,20.56
2023-03-28T19:33:37.617Z,20.56
2023-03-28T19:36:06.404Z,20.57
2023-03-28T19:38:36.307Z,20.56
2023-03-28T19:41:10.721Z,20.57
2023-03-28T19:43:38.630Z,20.58
2023-03-28T19:46:08.150Z,20.57
2023-03-28T19:48:36.122Z,20.58
2023-03-28T19:51:03.633Z,20.59
2023-03-28T19:53:30.679Z,20.58
2023-03-28T19:55:59.950Z,20.58
2023-03-28T19:58:28.430Z,20.59
2023-03-28T20:00:57.131Z,20.58
2023-03-28T20:03:24.737Z,20.57
2023-03-28T20:05:52.084Z,20.57
2023-03-28T20:08:19.970Z,20.57
2023-03-28T20:10:49.291Z,20.57
2023-03-28T20:13:17.258Z,20.57
2023-03-28T20:15:46.065Z,20.57
2023-03-28T20:18:20.058Z,20.57
2023-03-28T20:20:53.217Z,20.57
2023-03-28T20:23:23.692Z,20.56
2023-03-28T20:25:52.595Z,20.55
2023-03-28T20:28:21.139Z,20.54
2023-03-28T20:30:48.376Z,20.53
2023-03-28T20:33:15.522Z,20.52
2023-03-28T20:35:42.593Z,20.52
2023-03-28T20:38:10.121Z,20.51
2023-03-28T20:40:40.599Z,20.49
2023-03-28T20:43:10.232Z,20.49
2023-03-28T20:45:39.465Z,20.48
2023-03-28T20:48:07.754Z,20.48
2023-03-28T20:50:35.583Z,20.46
2023-03-28T20:53:06.387Z,20.45
2023-03-28T20:55:34.881Z,20.44
2023-03-28T20:58:02.415Z,20.44
2023-03-28T21:00:33.965Z,20.43
2023-03-28T21:03:03.751Z,20.43
2023-03-28T21:05:31.513Z,20.43
2023-03-28T21:07:59.986Z,20.42
2023-03-28T21:10:26.960Z,20.40
2023-03-28T21:12:53.963Z,20.39
2023-03-28T21:15:21.233Z,20.39
2023-03-28T21:17:49.661Z,20.43
2023-03-28T21:20:18.709Z,20.44
2023-03-28T21:22:45.858Z,20.45
2023-03-28T21:25:14.235Z,20.46
2023-03-28T21:27:41.499Z,20.46
2023-03-28T21:30:11.836Z,20.45
2023-03-28T21:32:38.904Z,20.43
2023-03-28T21:35:06.778Z,20.42
2023-03-28T21:37:33.878Z,20.40
2023-03-28T21:40:01.231Z,20.38
2023-03-28T21:42:29.085Z,20.36
2023-03-28T21:44:55.933Z,20.35
2023-03-28T21:47:23.175Z,20.35
2023-03-28T21:49:50.312Z,20.36
2023-03-28T21:52:17.480Z,20.37
2023-03-28T21:54:44.478Z,20.43
2023-03-28T21:57:11.459Z,20.45
2023-03-28T21:59:40.371Z,20.47
2023-03-28T22:02:08.305Z,20.49
2023-03-28T22:04:36.897Z,20.51
2023-03-28T22:07:03.847Z,20.54
2023-03-28T22:09:30.812Z,20.56
2023-03-28T22:11:57.891Z,20.56
2023-03-28T22:14:24.933Z,20.56
2023-03-28T22:16:51.950Z,20.54
2023-03-28T22:19:20.410Z,20.52
2023-03-28T22:21:50.583Z,20.49
2023-03-28T22:24:18.141Z,20.47
2023-03-28T22:26:45.325Z,20.47
2023-03-28T22:29:12.326Z,20.46
2023-03-28T22:31:39.332Z,20.45
2023-03-28T22:34:06.454Z,20.44
2023-03-28T22:36:33.584Z,20.42
2023-03-28T22:39:00.917Z,20.40
2023-03-28T22:41:31.911Z,20.39
2023-03-28T22:43:59.617Z,20.38
2023-03-28T22:46:26.543Z,20.36
2023-03-28T22:48:58.803Z,20.34
2023-03-28T22:51:28.287Z,20.33
2023-03-28T22:54:00.817Z,20.32
2023-03-28T22:56:28.163Z,20.31
2023-03-28T22:58:56.341Z,20.31
2023-03-28T23:01:26.270Z,20.34
2023-03-28T23:03:53.900Z,20.35
2023-03-28T23:06:21.160Z,20.35
2023-03-28T23:08:48.527Z,20.36
2023-03-28T23:11:15.743Z,20.35
2023-03-28T23:13:42.900Z,20.35
2023-03-28T23:16:09.936Z,20.36
2023-03-28T23:18:38.448Z,20.35
2023-03-28T23:21:05.690Z,20.35
2023-03-28T23:23:33.416Z,20.35
2023-03-28T23:26:00.406Z,20.35
2023-03-28T23:28:27.665Z,20.34
2023-03-28T23:30:54.918Z,20.33
2023-03-28T23:33:21.857Z,20.32
2023-03-28T23:35:48.935Z,20.29
2023-03-28T23:38:17.813Z,20.28
2023-03-28T23:40:45.558Z,20.31
2023-03-28T23:43:12.902Z,20.29
2023-03-28T23:45:39.836Z,20.29
2023-03-28T23:48:07.964Z,20.31
2023-03-28T23:50:35.589Z,20.31
2023-03-28T23:53:03.756Z,20.31
2023-03-28T23:55:31.535Z,20.30
2023-03-28T23:58:01.987Z,20.29
